Time;durP1;ratioP1;P1;durP2;ratioP2;P2;SDS_P1;SDS_P2;PMS_P1;PMS_P2;Temp;Humidity;BMP_temperature;BMP_pressure;BME280_temperature;BME280_humidity;BME280_pressure;Samples;Min_cycle;Max_cycle;Signal;HPM_P1;HPM_P2
2022/06/15 00:01:34;;;;;;;3.67;2.00;;;;;;;14.64;76.01;101848.94;5052367;28;20053;-58
2022/06/15 00:04:03;;;;;;;6.18;2.22;;;;;;;14.61;76.60;101842.97;5054202;28;20059;-57
2022/06/15 00:06:38;;;;;;;8.73;2.30;;;;;;;14.61;76.96;101850.91;5050354;28;20068;-57
2022/06/15 00:09:07;;;;;;;9.30;2.25;;;;;;;14.51;77.54;101853.31;5051766;28;20057;-50
2022/06/15 00:11:37;;;;;;;6.82;2.58;;;;;;;14.36;78.66;101844.59;5054195;28;20045;-55
2022/06/15 00:14:08;;;;;;;7.07;2.72;;;;;;;14.45;78.64;101851.94;5050950;28;20061;-58
2022/06/15 00:16:36;;;;;;;6.20;2.53;;;;;;;14.54;77.91;101846.00;5048934;28;20068;-56
2022/06/15 00:19:05;;;;;;;6.47;2.22;;;;;;;14.46;78.61;101850.13;5053928;28;20049;-57
2022/06/15 00:21:35;;;;;;;7.20;2.72;;;;;;;14.47;78.67;101846.53;5054073;28;20064;-45
2022/06/15 00:24:03;;;;;;;5.82;2.58;;;;;;;14.43;78.69;101851.16;5054010;28;20059;-56
2022/06/15 00:26:31;;;;;;;10.32;2.47;;;;;;;14.49;78.31;101841.97;5050018;28;20083;-50
2022/06/15 00:29:00;;;;;;;8.80;2.60;;;;;;;14.45;78.48;101843.97;5049510;28;20056;-47
2022/06/15 00:31:28;;;;;;;7.30;2.20;;;;;;;14.39;78.87;101849.66;5052890;28;20041;-56
2022/06/15 00:33:56;;;;;;;8.40;2.35;;;;;;;14.36;79.51;101845.41;5050040;28;20128;-48
2022/06/15 00:36:24;;;;;;;7.93;2.47;;;;;;;14.36;79.65;101850.72;5050954;28;20053;-57
2022/06/15 00:38:55;;;;;;;6.82;2.60;;;;;;;14.31;79.94;101851.97;5053828;28;20056;-57
2022/06/15 00:41:27;;;;;;;7.10;2.53;;;;;;;14.22;80.99;101841.97;5053553;28;20045;-57
2022/06/15 00:43:57;;;;;;;6.10;2.42;;;;;;;14.18;81.16;101850.13;5052786;28;20107;-48
2022/06/15 00:46:30;;;;;;;7.10;2.60;;;;;;;14.13;81.36;101854.84;5047073;28;20522;-47
2022/06/15 00:49:02;;;;;;;9.27;2.88;;;;;;;14.13;81.78;101848.72;5050980;28;20564;-58
2022/06/15 00:51:31;;;;;;;7.97;2.60;;;;;;;14.06;82.44;101857.97;5052983;28;20041;-58
2022/06/15 00:54:00;;;;;;;7.70;2.92;;;;;;;14.11;82.22;101854.13;5050068;28;20515;-47
2022/06/15 00:56:31;;;;;;;9.63;2.42;;;;;;;14.13;82.13;101846.06;5049061;28;20095;-58
2022/06/15 00:59:04;;;;;;;8.70;3.33;;;;;;;14.12;82.32;101847.00;5052924;28;20435;-57
2022/06/15 01:01:32;;;;;;;6.95;2.85;;;;;;;13.93;83.04;101849.97;5051544;28;20091;-58
2022/06/15 01:04:03;;;;;;;6.47;3.03;;;;;;;13.91;82.85;101849.25;5052860;28;20075;-58
2022/06/15 01:06:38;;;;;;;8.80;3.10;;;;;;;13.88;83.19;101844.13;5052755;28;20140;-56
2022/06/15 01:09:17;;;;;;;5.65;2.33;;;;;;;13.76;83.87;101843.97;5052491;28;20848;-47
2022/06/15 01:11:58;;;;;;;6.25;2.42;;;;;;;13.78;83.51;101838.56;5049193;28;20055;-47
2022/06/15 01:14:46;;;;;;;8.23;2.70;;;;;;;13.73;83.90;101835.38;5051356;28;20431;-58
2022/06/15 01:17:30;;;;;;;8.57;2.65;;;;;;;13.78;83.35;101843.88;5052970;28;20048;-56
2022/06/15 01:20:22;;;;;;;9.77;2.88;;;;;;;13.75;83.50;101847.56;5051326;28;20049;-50
2022/06/15 01:23:19;;;;;;;8.05;2.75;;;;;;;13.69;83.67;101840.84;5049742;28;20381;-50
2022/06/15 01:26:05;;;;;;;8.68;2.45;;;;;;;13.77;83.22;101845.69;5048641;28;20129;-57
2022/06/15 01:28:41;;;;;;;8.23;3.22;;;;;;;13.68;83.86;101844.44;5052111;28;20052;-57
2022/06/15 01:31:21;;;;;;;5.90;2.60;;;;;;;13.64;84.58;101848.22;5052518;28;20049;-48
2022/06/15 01:34:02;;;;;;;7.55;3.00;;;;;;;13.64;84.67;101842.94;5052453;28;20048;-50
2022/06/15 01:36:39;;;;;;;8.25;3.17;;;;;;;13.55;85.19;101843.50;5048391;28;20061;-58
2022/06/15 01:39:18;;;;;;;8.43;3.05;;;;;;;13.52;85.82;101836.63;5050707;28;20693;-57
2022/06/15 01:41:53;;;;;;;7.35;2.90;;;;;;;13.52;85.87;101836.63;5048965;28;20072;-57
2022/06/15 01:44:26;;;;;;;10.20;2.90;;;;;;;13.53;86.36;101834.84;5045309;28;20132;-50
2022/06/15 01:46:57;;;;;;;7.68;2.83;;;;;;;13.51;86.43;101831.41;5052088;28;20045;-56
2022/06/15 01:49:30;;;;;;;8.32;3.17;;;;;;;13.38;87.20;101825.22;5051820;28;20504;-55
2022/06/15 01:52:01;;;;;;;8.93;3.05;;;;;;;13.41;87.26;101822.38;5051815;28;20500;-51
2022/06/15 01:54:33;;;;;;;12.02;3.35;;;;;;;13.42;86.95;101826.72;5050229;28;20075;-56
2022/06/15 01:57:04;;;;;;;8.25;3.33;;;;;;;13.45;86.48;101822.09;5051384;28;20526;-56
2022/06/15 01:59:41;;;;;;;7.57;2.87;;;;;;;13.43;86.51;101818.69;5051738;28;20037;-57
2022/06/15 02:02:19;;;;;;;9.00;3.45;;;;;;;13.37;87.02;101826.16;5050541;28;20457;-56
2022/06/15 02:04:59;;;;;;;10.43;3.20;;;;;;;13.38;87.26;101825.22;5048452;28;20057;-57
2022/06/15 02:07:35;;;;;;;7.90;3.15;;;;;;;13.34;87.14;101817.44;5051668;28;20045;-57
2022/06/15 02:10:09;;;;;;;7.93;3.85;;;;;;;13.27;88.14;101820.56;5049422;28;20051;-49
2022/06/15 02:12:45;;;;;;;8.18;3.30;;;;;;;13.20;88.35;101809.50;5047820;28;20083;-49
2022/06/15 02:15:17;;;;;;;8.82;3.38;;;;;;;13.19;88.62;101818.38;5050562;28;20045;-52
2022/06/15 02:17:50;;;;;;;7.55;3.22;;;;;;;13.25;88.31;101820.66;5048804;28;20042;-49
2022/06/15 02:20:24;;;;;;;8.65;3.42;;;;;;;13.24;88.51;101815.44;5049253;28;20403;-57
2022/06/15 02:22:54;;;;;;;7.57;3.38;;;;;;;13.30;87.96;101813.28;5051967;28;20043;-47
2022/06/15 02:25:27;;;;;;;8.43;3.50;;;;;;;13.32;88.11;101811.41;5051860;28;20048;-56
2022/06/15 02:27:55;;;;;;;;;;;;;;;13.18;88.98;101811.38;5052308;28;20041;-56
2022/06/15 02:30:26;;;;;;;9.77;3.80;;;;;;;13.19;89.13;101810.44;5046038;28;19948;-49
2022/06/15 02:32:55;;;;;;;7.43;3.22;;;;;;;13.26;89.12;101801.19;5048868;28;20395;-57
2022/06/15 02:35:24;;;;;;;10.10;3.30;;;;;;;13.23;89.16;101809.31;5051259;28;20053;-46
2022/06/15 02:37:52;;;;;;;9.65;3.30;;;;;;;13.14;89.42;101801.94;5052053;28;20049;-54
2022/06/15 02:40:22;;;;;;;7.53;3.40;;;;;;;13.14;89.69;101801.94;5051948;28;20522;-56
2022/06/15 02:42:50;;;;;;;9.25;3.83;;;;;;;13.10;89.77;101806.59;5051694;28;20060;-56
2022/06/15 02:45:22;;;;;;;7.53;3.70;;;;;;;13.09;89.78;101804.88;5049623;28;20049;-51
2022/06/15 02:47:51;;;;;;;8.77;4.10;;;;;;;13.02;90.11;101807.03;5048163;28;20435;-57
2022/06/15 02:50:22;;;;;;;11.63;3.72;;;;;;;13.03;90.69;101805.25;5050478;28;20515;-56
2022/06/15 02:52:56;;;;;;;9.95;3.85;;;;;;;13.09;90.33;101806.66;5051637;28;20048;-48
2022/06/15 02:55:26;;;;;;;9.38;3.80;;;;;;;13.07;90.15;101804.09;5050374;28;20080;-56
2022/06/15 02:58:06;;;;;;;10.20;3.85;;;;;;;13.06;90.56;101804.22;5050366;28;20427;-49
2022/06/15 03:00:35;;;;;;;11.73;3.60;;;;;;;13.00;90.97;101800.16;5045949;28;20443;-57
2022/06/15 03:03:03;;;;;;;12.32;3.70;;;;;;;12.95;91.41;101791.66;5050535;28;20076;-57
2022/06/15 03:05:33;;;;;;;8.20;3.55;;;;;;;13.02;90.57;101799.13;5051358;28;20048;-57
2022/06/15 03:08:01;;;;;;;11.65;3.70;;;;;;;13.01;90.72;101789.50;5050170;28;20053;-48
2022/06/15 03:10:29;;;;;;;9.23;3.70;;;;;;;12.99;91.16;101785.25;5054401;28;20675;-55
2022/06/15 03:12:57;;;;;;;9.85;3.47;;;;;;;12.95;91.34;101787.25;5055377;28;20551;-47
2022/06/15 03:15:25;;;;;;;7.85;3.47;;;;;;;12.95;91.09;101789.00;5052072;28;20114;-45
2022/06/15 03:17:53;;;;;;;6.18;4.00;;;;;;;12.96;90.98;101786.28;5050517;28;20056;-48
2022/06/15 03:20:21;;;;;;;12.07;3.53;;;;;;;12.96;90.99;101793.34;5055040;28;20106;-48
2022/06/15 03:22:51;;;;;;;8.95;3.65;;;;;;;12.91;91.45;101790.13;5055092;28;20048;-47
2022/06/15 03:25:19;;;;;;;9.40;3.85;;;;;;;12.85;91.56;101791.34;5055155;28;20044;-47
2022/06/15 03:27:47;;;;;;;8.85;3.33;;;;;;;12.83;91.15;101787.97;5055002;28;20446;-47
2022/06/15 03:30:16;;;;;;;8.55;3.63;;;;;;;12.87;91.07;101792.13;5055173;28;20053;-57
2022/06/15 03:32:44;;;;;;;9.38;3.95;;;;;;;12.91;91.36;101791.00;5055196;28;20056;-47
2022/06/15 03:35:13;;;;;;;9.77;3.83;;;;;;;12.87;91.30;101792.13;5055122;28;20131;-54
2022/06/15 03:37:41;;;;;;;10.35;4.15;;;;;;;12.80;92.29;101793.41;5052186;28;20053;-46
2022/06/15 03:40:12;;;;;;;7.95;4.15;;;;;;;12.82;93.03;101794.19;5051061;28;20053;-56
2022/06/15 03:42:41;;;;;;;7.97;3.83;;;;;;;12.83;92.66;101798.53;5053710;28;20376;-54
2022/06/15 03:45:12;;;;;;;7.97;4.00;;;;;;;12.75;92.82;101792.84;5054660;28;20128;-57
2022/06/15 03:47:41;;;;;;;9.83;3.90;;;;;;;12.80;92.87;101793.41;5053423;28;20434;-56
2022/06/15 03:50:10;;;;;;;8.70;3.92;;;;;;;12.78;93.32;101797.94;5055079;28;20275;-47
2022/06/15 03:52:38;;;;;;;9.10;4.00;;;;;;;12.74;93.64;101799.06;5052593;28;20115;-57
2022/06/15 03:55:06;;;;;;;7.93;3.97;;;;;;;12.71;93.39;101799.22;5051138;28;20065;-56
2022/06/15 03:57:35;;;;;;;11.50;4.35;;;;;;;12.76;93.82;101797.19;5053502;28;20055;-50
2022/06/15 04:00:05;;;;;;;10.85;4.20;;;;;;;12.73;93.64;101795.56;5053480;28;20385;-56
2022/06/15 04:02:33;;;;;;;7.93;3.92;;;;;;;12.72;94.09;101793.03;5054662;28;20072;-47
2022/06/15 04:05:01;;;;;;;10.60;3.85;;;;;;;12.70;94.68;101801.03;5051317;28;20546;-47
2022/06/15 04:10:14;;;;;;;9.80;4.05;;;;;;;12.75;94.32;101795.47;5053900;28;20045;-55
2022/06/15 04:12:45;;;;;;;9.32;3.30;;;;;;;12.84;93.56;101797.56;5054220;28;20102;-50
2022/06/15 04:15:16;;;;;;;7.82;4.20;;;;;;;12.79;93.84;101797.84;5054301;28;20041;-47
2022/06/15 04:17:45;;;;;;;8.60;3.65;;;;;;;12.84;93.42;101805.50;5054359;28;20052;-56
2022/06/15 04:20:36;;;;;;;9.82;3.78;;;;;;;12.81;93.98;101800.41;5062213;28;20040;-58
2022/06/15 04:23:07;;;;;;;8.15;3.72;;;;;;;12.83;93.65;101795.91;5062695;28;20109;-49
2022/06/15 04:25:37;;;;;;;7.72;4.10;;;;;;;12.87;93.68;101800.06;5056440;28;20062;-48
2022/06/15 04:28:08;;;;;;;10.82;4.35;;;;;;;12.94;93.31;101805.78;5060027;28;20044;-55
2022/06/15 04:30:36;;;;;;;10.15;3.88;;;;;;;12.91;94.07;101798.94;5057827;28;20510;-49
2022/06/15 04:33:04;;;;;;;9.32;3.95;;;;;;;12.96;93.50;101802.13;5060926;28;20079;-45
2022/06/15 04:35:33;;;;;;;8.60;3.80;;;;;;;13.00;93.74;101795.69;5057363;28;20040;-47
2022/06/15 04:38:01;;;;;;;9.40;3.75;;;;;;;13.00;94.05;101803.63;5060596;28;20079;-46
2022/06/15 04:40:29;;;;;;;7.68;4.07;;;;;;;13.04;94.12;101800.81;5055524;28;20244;-57
2022/06/15 04:42:58;;;;;;;8.90;4.20;;;;;;;13.04;93.72;101796.38;5064007;28;20040;-53
2022/06/15 04:45:27;;;;;;;9.63;3.80;;;;;;;13.09;93.37;101793.44;5062719;28;20115;-47
2022/06/15 04:47:56;;;;;;;9.05;4.00;;;;;;;13.15;94.09;101785.16;5066575;28;20073;-47
2022/06/15 04:50:24;;;;;;;9.25;4.13;;;;;;;13.20;93.75;101788.38;5062729;28;20083;-46
2022/06/15 04:52:53;;;;;;;8.60;3.85;;;;;;;13.23;93.84;101790.00;5060622;28;20053;-46
2022/06/15 04:55:23;;;;;;;12.15;3.97;;;;;;;13.30;93.03;101786.84;5065319;28;20064;-56
2022/06/15 04:57:54;;;;;;;12.05;3.95;;;;;;;13.38;93.04;101796.16;5058552;28;20052;-55
2022/06/15 05:00:25;;;;;;;12.07;4.68;;;;;;;13.43;92.69;101791.41;5056040;28;20139;-48
2022/06/15 05:02:55;;;;;;;9.93;3.95;;;;;;;13.52;92.64;101801.41;5064402;28;20041;-56
2022/06/15 05:05:23;;;;;;;9.55;4.15;;;;;;;13.58;92.61;101800.19;5057605;28;20037;-47
2022/06/15 05:07:52;;;;;;;11.90;4.57;;;;;;;13.64;91.87;101805.09;5060780;28;20076;-48
2022/06/15 05:10:23;;;;;;;7.22;3.75;;;;;;;13.75;91.84;101804.41;5058897;28;20124;-56
2022/06/15 05:12:51;;;;;;;9.90;4.22;;;;;;;13.87;91.41;101795.69;5051800;28;20051;-49
2022/06/15 05:15:20;;;;;;;9.68;3.97;;;;;;;13.93;90.34;101805.03;5059950;28;20061;-47
2022/06/15 05:17:50;;;;;;;8.10;4.00;;;;;;;13.95;89.75;101806.63;5058275;28;20041;-57
2022/06/15 05:20:20;;;;;;;10.35;4.38;;;;;;;14.03;88.79;101800.84;5052185;28;20102;-45
2022/06/15 05:22:55;;;;;;;8.73;4.05;;;;;;;14.13;89.03;101807.22;5061654;28;20040;-46
2022/06/15 05:25:23;;;;;;;13.63;4.47;;;;;;;14.20;88.16;101805.88;5058942;28;20041;-56
2022/06/15 05:27:51;;;;;;;7.57;3.67;;;;;;;14.28;88.54;101815.97;5049176;28;20037;-57
2022/06/15 05:30:20;;;;;;;11.38;4.22;;;;;;;14.37;88.00;101810.06;5061174;28;20399;-50
2022/06/15 05:32:48;;;;;;;8.43;3.80;;;;;;;14.50;87.87;101803.97;5070630;28;20045;-55
2022/06/15 05:35:16;;;;;;;11.55;4.72;;;;;;;14.58;87.71;101806.13;5052186;28;20480;-57
2022/06/15 05:37:45;;;;;;;10.70;4.07;;;;;;;14.64;86.49;101803.06;5058919;28;20455;-55
2022/06/15 05:40:14;;;;;;;9.02;3.97;;;;;;;14.72;85.72;101805.22;5054457;28;20060;-47
2022/06/15 05:42:42;;;;;;;9.80;3.90;;;;;;;14.81;85.67;101805.44;5062563;28;20561;-48
2022/06/15 05:45:10;;;;;;;11.77;4.13;;;;;;;14.91;84.61;101808.28;5064781;28;20052;-49
2022/06/15 05:47:38;;;;;;;10.40;3.35;;;;;;;15.01;83.96;101804.06;5049776;28;20045;-56
2022/06/15 05:50:08;;;;;;;9.32;4.03;;;;;;;15.11;83.46;101800.81;5053539;28;20102;-56
2022/06/15 05:52:39;;;;;;;;;;;;;;;15.21;82.75;101804.47;5054330;28;20049;-56
2022/06/15 05:55:09;;;;;;;10.43;4.00;;;;;;;15.27;82.79;101808.50;5063881;28;20018;-47
2022/06/15 05:57:37;;;;;;;10.07;3.95;;;;;;;15.37;81.89;101802.47;5061076;28;20052;-49
2022/06/15 06:00:09;;;;;;;7.70;3.90;;;;;;;15.48;82.20;101801.69;5055373;28;20434;-57
2022/06/15 06:02:37;;;;;;;11.30;4.00;;;;;;;15.60;81.35;101794.69;5059784;28;20045;-53
2022/06/15 06:05:06;;;;;;;9.55;3.95;;;;;;;15.71;80.34;101797.41;5051941;28;20107;-57
2022/06/15 06:07:34;;;;;;;13.43;3.95;;;;;;;15.86;80.45;101790.19;5058817;28;20053;-58
2022/06/15 06:10:02;;;;;;;8.43;4.38;;;;;;;15.97;79.16;101792.06;5053917;28;20052;-57
2022/06/15 06:12:31;;;;;;;9.20;3.85;;;;;;;16.12;77.74;101795.38;5061820;28;20492;-58
2022/06/15 06:15:00;;;;;;;9.55;4.30;;;;;;;16.25;77.68;101800.63;5056202;28;20066;-56
2022/06/15 06:17:28;;;;;;;11.20;4.30;;;;;;;16.36;78.17;101792.72;5061949;28;20511;-56
2022/06/15 06:19:56;;;;;;;12.00;4.30;;;;;;;16.46;77.79;101792.88;5060901;28;20044;-51
2022/06/15 06:22:24;;;;;;;12.82;4.43;;;;;;;16.62;77.33;101791.72;5052849;28;20120;-57
2022/06/15 06:24:52;;;;;;;9.30;4.05;;;;;;;16.80;76.34;101802.75;5054086;28;20103;-51
2022/06/15 06:27:20;;;;;;;9.63;3.95;;;;;;;16.88;76.68;101800.38;5069149;28;20044;-50
2022/06/15 06:29:49;;;;;;;12.45;4.13;;;;;;;17.06;77.11;101798.94;5069740;28;20116;-49
2022/06/15 06:32:17;;;;;;;8.68;4.30;;;;;;;17.20;75.30;101802.34;5070049;28;20508;-51
2022/06/15 06:34:46;;;;;;;9.43;4.10;;;;;;;17.25;73.60;101797.53;5058091;28;20034;-57
2022/06/15 06:37:16;;;;;;;8.27;3.97;;;;;;;17.27;73.32;101798.25;5067418;28;20110;-48
2022/06/15 06:39:44;;;;;;;8.75;4.00;;;;;;;17.43;73.55;101808.50;5066778;28;20059;-52
2022/06/15 06:42:12;;;;;;;8.30;3.92;;;;;;;17.56;71.76;101809.25;5069540;28;20500;-51
2022/06/15 06:44:40;;;;;;;11.15;4.70;;;;;;;17.72;71.46;101810.66;5072721;28;20041;-56
2022/06/15 06:47:10;;;;;;;9.70;4.45;;;;;;;17.88;70.84;101810.28;5075894;28;20127;-57
2022/06/15 06:49:38;;;;;;;11.95;4.38;;;;;;;18.03;71.46;101805.56;5076133;28;20499;-57
2022/06/15 06:52:07;;;;;;;9.82;4.20;;;;;;;18.18;70.19;101806.13;5074528;28;20040;-48
2022/06/15 06:54:35;;;;;;;9.68;3.85;;;;;;;18.32;68.95;101816.44;5076007;28;20041;-58
2022/06/15 06:57:04;;;;;;;6.45;3.90;;;;;;;18.46;68.17;101810.00;5075728;28;20556;-50
2022/06/15 06:59:32;;;;;;;9.55;4.25;;;;;;;18.62;67.71;101808.69;5074588;28;20098;-57
2022/06/15 07:02:00;;;;;;;11.60;4.50;;;;;;;18.73;66.80;101804.16;5071438;28;20052;-56
2022/06/15 07:04:30;;;;;;;11.20;3.58;;;;;;;18.82;65.08;101801.69;5073869;28;20040;-57
2022/06/15 07:06:59;;;;;;;9.25;4.53;;;;;;;19.02;65.18;101811.50;5072891;28;20051;-48
2022/06/15 07:09:27;;;;;;;7.75;3.17;;;;;;;19.22;64.99;101808.94;5071785;28;20047;-57
2022/06/15 07:11:55;;;;;;;9.45;3.63;;;;;;;19.35;64.53;101819.41;5074987;28;20055;-49
2022/06/15 07:14:23;;;;;;;7.75;3.33;;;;;;;19.49;63.58;101819.00;5075461;28;20099;-49
2022/06/15 07:16:52;;;;;;;9.90;3.95;;;;;;;19.66;63.00;101822.88;5075333;28;20110;-58
2022/06/15 07:19:20;;;;;;;9.13;3.30;;;;;;;19.79;61.98;101829.78;5072946;28;20052;-56
2022/06/15 07:21:49;;;;;;;10.10;3.58;;;;;;;19.92;60.70;101831.25;5071243;28;20056;-48
2022/06/15 07:24:18;;;;;;;9.82;3.40;;;;;;;19.93;60.89;101830.28;5075294;28;20050;-57
2022/06/15 07:26:48;;;;;;;11.25;3.85;;;;;;;20.08;59.68;101835.19;5073497;28;20044;-57
2022/06/15 07:29:20;;;;;;;7.18;3.05;;;;;;;20.21;59.26;101837.63;5070621;28;20388;-57
2022/06/15 07:31:51;;;;;;;8.82;2.88;;;;;;;20.36;57.79;101830.03;5072518;28;20514;-54
2022/06/15 07:34:20;;;;;;;8.02;3.05;;;;;;;20.44;57.67;101839.03;5074766;28;20064;-56
2022/06/15 07:36:51;;;;;;;8.68;2.97;;;;;;;20.62;57.17;101835.66;5074820;28;20053;-56
2022/06/15 07:39:21;;;;;;;7.50;2.60;;;;;;;20.81;56.31;101834.81;5074851;28;20048;-57
2022/06/15 07:41:49;;;;;;;9.18;2.78;;;;;;;21.05;55.79;101837.00;5074527;28;20098;-54
2022/06/15 07:44:19;;;;;;;8.35;3.15;;;;;;;21.15;54.82;101830.81;5074841;28;20432;-50
2022/06/15 07:46:47;;;;;;;12.32;3.00;;;;;;;21.33;55.06;101836.22;5074684;28;20098;-53
2022/06/15 07:52:05;;;;;;;6.82;3.00;;;;;;;21.68;54.40;101838.19;5072226;28;20056;-49
2022/06/15 07:54:34;;;;;;;10.02;3.20;;;;;;;21.77;54.47;101836.44;5072614;28;20110;-57
2022/06/15 07:57:02;;;;;;;8.98;2.90;;;;;;;21.85;51.52;101827.69;5073177;28;20557;-57
2022/06/15 07:59:30;;;;;;;8.43;2.63;;;;;;;21.92;49.88;101834.09;5074359;28;20055;-56
2022/06/15 08:01:58;;;;;;;8.18;2.80;;;;;;;21.93;49.81;101841.16;5074454;28;20076;-57
2022/06/15 08:04:26;;;;;;;8.20;2.85;;;;;;;22.02;50.32;101837.56;5074585;28;20044;-48
2022/06/15 08:06:54;;;;;;;9.82;2.40;;;;;;;22.03;48.88;101833.91;5074698;28;20169;-52
2022/06/15 08:09:24;;;;;;;8.27;2.60;;;;;;;22.23;49.70;101837.25;5072683;28;20674;-57
2022/06/15 08:14:41;;;;;;;6.95;2.60;;;;;;;22.57;48.99;101831.22;5073074;28;20056;-50
2022/06/15 08:17:12;;;;;;;10.98;2.70;;;;;;;22.66;46.83;101821.44;5070448;28;20379;-47
2022/06/15 08:19:45;;;;;;;11.25;3.03;;;;;;;22.66;47.54;101820.56;5072292;28;20098;-47
2022/06/15 08:22:14;;;;;;;10.20;2.50;;;;;;;22.79;47.21;101821.84;5073641;28;20420;-57
2022/06/15 08:24:45;;;;;;;10.00;2.80;;;;;;;22.90;47.16;101823.41;5073948;28;20527;-51
2022/06/15 08:27:18;;;;;;;7.22;2.40;;;;;;;23.04;45.26;101818.47;5074011;28;20048;-57
2022/06/15 08:29:48;;;;;;;7.65;2.50;;;;;;;23.20;45.52;101831.19;5070845;28;20102;-54
2022/06/15 08:32:18;;;;;;;6.30;2.15;;;;;;;23.19;45.30;101822.31;5069774;28;20044;-57
2022/06/15 08:34:46;;;;;;;8.82;2.80;;;;;;;23.34;43.81;101833.28;5073365;28;20095;-51
2022/06/15 08:37:17;;;;;;;7.40;2.25;;;;;;;23.33;44.04;101828.91;5072375;28;20056;-51
2022/06/15 08:39:46;;;;;;;10.10;2.17;;;;;;;23.42;43.34;101827.09;5073825;28;20044;-55
2022/06/15 08:42:23;;;;;;;6.65;2.20;;;;;;;23.55;42.40;101826.66;5073638;28;20565;-56
2022/06/15 08:45:02;;;;;;;9.23;2.10;;;;;;;23.63;42.08;101824.00;5069630;28;20110;-52
2022/06/15 08:47:41;;;;;;;6.40;2.25;;;;;;;23.70;41.33;101821.50;5070068;28;20499;-52
2022/06/15 08:50:16;;;;;;;7.72;2.00;;;;;;;23.82;41.44;101824.69;5073579;28;20400;-55
2022/06/15 08:52:47;;;;;;;4.97;1.75;;;;;;;24.01;42.03;101818.22;5073288;28;20048;-56
2022/06/15 08:55:25;;;;;;;7.18;1.70;;;;;;;24.23;41.71;101814.91;5068798;28;20048;-55
2022/06/15 08:57:55;;;;;;;5.93;2.17;;;;;;;24.26;40.67;101811.06;5069723;28;20056;-50
2022/06/15 09:00:27;;;;;;;5.32;1.85;;;;;;;24.53;40.28;101823.31;5073546;28;20123;-49
2022/06/15 09:03:11;;;;;;;7.05;1.88;;;;;;;24.61;40.23;101823.34;5073557;28;20045;-50
2022/06/15 09:05:49;;;;;;;7.50;1.77;;;;;;;24.81;40.08;101820.28;5073288;28;20071;-51
2022/06/15 09:08:37;;;;;;;7.32;2.05;;;;;;;24.91;39.84;101826.31;5072067;28;20499;-53
2022/06/15 09:11:17;;;;;;;7.28;2.60;;;;;;;25.22;40.13;101833.63;5069710;28;20043;-58
2022/06/15 09:14:01;;;;;;;7.05;2.10;;;;;;;25.13;39.43;101824.75;5071479;28;20434;-50
2022/06/15 09:16:38;;;;;;;5.10;1.92;;;;;;;25.29;39.13;101823.00;5073177;28;20418;-57
2022/06/15 09:19:11;;;;;;;8.30;2.08;;;;;;;25.46;38.33;101827.34;5073138;28;20496;-57
2022/06/15 09:21:44;;;;;;;5.85;1.90;;;;;;;25.44;37.76;101831.22;5072880;28;20044;-57
2022/06/15 09:24:16;;;;;;;10.13;2.17;;;;;;;25.21;37.80;101826.59;5073157;28;20045;-56
2022/06/15 09:26:50;;;;;;;7.22;2.38;;;;;;;25.32;38.39;101822.69;5072949;28;20427;-57
2022/06/15 09:29:22;;;;;;;6.38;2.10;;;;;;;25.31;37.80;101827.22;5072751;28;20098;-56
2022/06/15 09:31:56;;;;;;;6.32;2.17;;;;;;;25.33;37.93;101832.44;5071835;28;20548;-56
2022/06/15 09:34:31;;;;;;;7.35;2.15;;;;;;;25.64;37.71;101828.97;5069179;28;20045;-50
2022/06/15 09:36:59;;;;;;;8.68;2.40;;;;;;;25.55;37.54;101816.53;5070577;28;20063;-53
2022/06/15 09:39:29;;;;;;;8.13;2.03;;;;;;;25.87;37.54;101818.22;5072631;28;20332;-51
2022/06/15 09:42:09;;;;;;;7.60;2.03;;;;;;;25.83;35.96;101811.50;5072566;28;20048;-51
2022/06/15 09:44:44;;;;;;;8.05;1.92;;;;;;;25.78;36.52;101817.44;5072380;28;20105;-56
2022/06/15 09:47:26;;;;;;;7.28;2.20;;;;;;;25.95;35.40;101811.94;5072663;28;20048;-56
2022/06/15 09:50:04;;;;;;;5.78;1.80;;;;;;;26.03;34.87;101820.00;5072383;28;20048;-50
2022/06/15 09:52:41;;;;;;;7.13;2.20;;;;;;;26.42;35.58;101807.41;5072576;28;20048;-56
2022/06/15 09:55:13;;;;;;;7.13;2.00;;;;;;;26.64;35.36;101809.22;5072297;28;20052;-48
2022/06/15 09:57:43;;;;;;;9.57;2.30;;;;;;;26.75;35.08;101810.69;5072345;28;20040;-48
2022/06/15 10:00:15;;;;;;;6.18;2.22;;;;;;;26.48;33.59;101806.69;5067349;28;20117;-49
2022/06/15 10:02:46;;;;;;;7.57;2.50;;;;;;;26.46;33.53;101804.19;5069604;28;20072;-56
2022/06/15 10:05:24;;;;;;;5.45;2.17;;;;;;;26.33;32.90;101806.66;5072220;28;20453;-56
2022/06/15 10:07:54;;;;;;;4.97;1.83;;;;;;;26.53;33.87;101806.13;5070083;28;20052;-49
2022/06/15 10:10:26;;;;;;;7.55;2.10;;;;;;;26.62;33.98;101808.56;5068634;28;20127;-50
2022/06/15 10:12:59;;;;;;;7.00;2.25;;;;;;;26.93;33.38;101796.81;5071488;28;20045;-56
2022/06/15 10:15:32;;;;;;;5.28;1.77;;;;;;;27.21;34.07;101798.84;5072280;28;20044;-56
2022/06/15 10:18:18;;;;;;;8.50;2.22;;;;;;;27.24;33.53;101792.22;5069280;28;20055;-56
2022/06/15 10:20:58;;;;;;;5.95;2.00;;;;;;;27.15;33.98;101789.63;5068710;28;20154;-55
2022/06/15 10:23:49;;;;;;;6.25;2.10;;;;;;;27.19;33.19;101792.81;5071651;28;20168;-50
2022/06/15 10:26:35;;;;;;;6.28;2.15;;;;;;;27.23;33.26;101787.84;5072160;28;20048;-48
2022/06/15 10:29:29;;;;;;;6.53;2.20;;;;;;;27.16;32.71;101777.81;5071921;28;20044;-50
2022/06/15 10:32:07;;;;;;;8.00;2.10;;;;;;;27.34;30.86;101784.69;5072043;28;20423;-51
2022/06/15 10:34:50;;;;;;;7.05;1.73;;;;;;;27.46;31.16;101785.06;5072229;28;20101;-49
2022/06/15 10:37:22;;;;;;;8.38;2.05;;;;;;;27.53;32.75;101775.19;5071654;28;20446;-51
2022/06/15 10:39:52;;;;;;;7.85;2.00;;;;;;;27.63;31.83;101772.16;5071931;28;20530;-55
2022/06/15 10:42:24;;;;;;;4.55;1.90;;;;;;;27.64;30.97;101779.25;5071145;28;20496;-56
2022/06/15 10:44:57;;;;;;;10.65;1.88;;;;;;;28.02;30.80;101775.50;5066671;28;20060;-49
2022/06/15 10:47:28;;;;;;;8.02;2.25;;;;;;;27.81;29.95;101778.00;5068269;28;20063;-50
2022/06/15 10:50:00;;;;;;;7.00;1.90;;;;;;;28.00;32.37;101770.28;5067884;28;20056;-55
2022/06/15 10:52:38;;;;;;;7.25;2.10;;;;;;;28.13;30.66;101777.69;5068170;28;20052;-56
2022/06/15 11:04:07;;;;;;;6.10;1.88;;;;;;;28.30;30.01;101770.94;5071593;28;20067;-51
2022/06/15 11:06:43;;;;;;;8.30;1.70;;;;;;;28.66;31.25;101769.19;5070300;28;20057;-52
2022/06/15 11:09:27;;;;;;;5.20;1.60;;;;;;;28.72;30.54;101775.66;5068071;28;20060;-57
2022/06/15 11:11:58;;;;;;;8.10;2.13;;;;;;;28.77;29.80;101771.34;5068889;28;20393;-57
2022/06/15 11:14:30;;;;;;;5.95;2.00;;;;;;;28.90;31.14;101767.84;5071644;28;20043;-52
2022/06/15 11:20:08;;;;;;;5.53;1.70;;;;;;;29.24;27.85;101765.31;5069891;28;19936;-51
2022/06/15 11:22:37;;;;;;;6.03;1.55;;;;;;;29.30;29.91;101759.09;5070305;28;20135;-48
2022/06/15 11:25:10;;;;;;;5.57;1.67;;;;;;;29.37;28.39;101767.25;5067931;28;20052;-56
2022/06/15 11:27:42;;;;;;;7.35;1.90;;;;;;;29.73;27.46;101763.41;5070356;28;20106;-51
2022/06/15 11:30:20;;;;;;;5.72;2.22;;;;;;;29.45;27.57;101767.94;5072209;28;20041;-50
2022/06/15 11:32:58;;;;;;;6.13;1.92;;;;;;;29.56;26.06;101757.53;5075508;28;20103;-56
2022/06/15 11:35:36;;;;;;;5.50;1.75;;;;;;;29.62;26.71;101764.84;5075066;28;20078;-57
2022/06/15 11:38:16;;;;;;;8.60;2.15;;;;;;;29.86;26.89;101755.34;5072701;28;20052;-50
2022/06/15 11:40:50;;;;;;;6.00;1.70;;;;;;;29.73;28.51;101761.53;5071840;28;20048;-49
2022/06/15 11:43:22;;;;;;;5.80;1.70;;;;;;;29.98;26.23;101758.25;5075211;28;20117;-57
2022/06/15 11:46:03;;;;;;;5.47;1.63;;;;;;;30.12;26.68;101751.78;5071721;28;20044;-51
2022/06/15 11:48:45;;;;;;;4.97;1.65;;;;;;;30.29;27.52;101759.50;5071674;28;20530;-50
2022/06/15 11:51:27;;;;;;;6.53;2.00;;;;;;;30.32;26.50;101743.66;5074834;28;20056;-52
2022/06/15 11:54:07;;;;;;;5.97;1.80;;;;;;;30.52;25.28;101753.66;5071366;28;20424;-49
2022/06/15 11:56:45;;;;;;;4.68;1.55;;;;;;;30.57;23.30;101742.16;5073303;28;20116;-57
2022/06/15 11:59:24;;;;;;;4.75;1.50;;;;;;;30.84;23.51;101742.94;5074435;28;20048;-57
2022/06/15 12:02:10;;;;;;;5.72;1.70;;;;;;;30.99;25.29;101739.94;5074683;28;20041;-51
2022/06/15 12:04:55;;;;;;;3.97;1.50;;;;;;;30.80;25.56;101745.25;5074615;28;20048;-56
2022/06/15 12:07:31;;;;;;;5.57;1.30;;;;;;;30.72;24.98;101740.06;5074677;28;20047;-56